Time;durP1;ratioP1;P1;durP2;ratioP2;P2;SDS_P1;SDS_P2;PMS_P1;PMS_P2;Temp;Humidity;BMP_temperature;BMP_pressure;BME280_temperature;BME280_humidity;BME280_pressure;Samples;Min_cycle;Max_cycle;Signal;HPM_P1;HPM_P2
2024/01/01 00:00:43;;;;;;;11.60;5.80;;;;;;;;;;5030099;28;20036;-78
2024/01/01 00:03:08;;;;;;;10.57;5.97;;;;;;;;;;5029089;28;20093;-79
2024/01/01 00:05:33;;;;;;;12.45;7.32;;;;;;;;;;5032274;28;20065;-79
2024/01/01 00:07:58;;;;;;;11.82;6.90;;;;;;;;;;5029535;28;20042;-79
2024/01/01 00:10:24;;;;;;;14.07;6.60;;;;;;;;;;5030427;28;20137;-79
2024/01/01 00:12:49;;;;;;;13.48;6.75;;;;;;;;;;5029519;28;20033;-77
2024/01/01 00:15:14;;;;;;;13.50;7.25;;;;;;;;;;5026801;28;20478;-79
2024/01/01 00:17:40;;;;;;;14.32;7.07;;;;;;;;;;5026735;28;20038;-79
2024/01/01 00:20:05;;;;;;;14.20;7.00;;;;;;;;;;5009115;28;20032;-77
2024/01/01 00:22:31;;;;;;;11.02;5.60;;;;;;;;;;5026491;28;20041;-78
2024/01/01 00:24:56;;;;;;;13.65;6.35;;;;;;;;;;5030560;28;20045;-79
2024/01/01 00:27:21;;;;;;;10.77;6.20;;;;;;;;;;5024324;28;20053;-77
2024/01/01 00:29:46;;;;;;;10.18;5.38;;;;;;;;;;5025873;28;20025;-79
2024/01/01 00:32:12;;;;;;;12.25;6.00;;;;;;;;;;5027723;28;20018;-78
2024/01/01 00:34:37;;;;;;;12.15;6.18;;;;;;;;;;5028276;28;20030;-78
2024/01/01 00:37:02;;;;;;;8.85;5.07;;;;;;;;;;5028422;28;20041;-79
2024/01/01 00:39:27;;;;;;;12.60;7.32;;;;;;;;;;5009740;28;20057;-78
2024/01/01 00:41:53;;;;;;;14.68;7.65;;;;;;;;;;5025370;28;20038;-79
2024/01/01 00:44:18;;;;;;;15.60;8.10;;;;;;;;;;5030390;28;20146;-78
2024/01/01 00:46:43;;;;;;;12.20;7.80;;;;;;;;;;5020733;28;20095;-78
2024/01/01 00:49:09;;;;;;;17.70;7.85;;;;;;;;;;5028454;28;20060;-78
2024/01/01 00:51:34;;;;;;;11.80;6.70;;;;;;;;;;5025695;28;20038;-78
2024/01/01 00:53:59;;;;;;;14.68;6.50;;;;;;;;;;5021678;28;20021;-81
2024/01/01 00:56:24;;;;;;;10.52;6.30;;;;;;;;;;5029503;28;20371;-79
2024/01/01 00:58:49;;;;;;;13.57;6.78;;;;;;;;;;5041895;28;20029;-77
2024/01/01 01:01:14;;;;;;;11.90;6.22;;;;;;;;;;5013521;28;20025;-78
2024/01/01 01:03:40;;;;;;;15.90;6.90;;;;;;;;;;5027777;28;20029;-77
2024/01/01 01:06:05;;;;;;;12.95;6.85;;;;;;;;;;5030335;28;20490;-78
2024/01/01 01:08:30;;;;;;;17.10;6.63;;;;;;;;;;5027976;28;20058;-78
2024/01/01 01:10:56;;;;;;;15.45;5.82;;;;;;;;;;5024700;28;20528;-78
2024/01/01 01:13:21;;;;;;;13.43;6.30;;;;;;;;;;5023551;28;20512;-79
2024/01/01 01:15:48;;;;;;;12.93;6.20;;;;;;;;;;5022477;28;20056;-78
2024/01/01 01:18:14;;;;;;;12.43;5.97;;;;;;;;;;5030853;28;20086;-77
2024/01/01 01:20:39;;;;;;;12.70;6.15;;;;;;;;;;5025460;28;20033;-78
2024/01/01 01:23:04;;;;;;;14.38;5.85;;;;;;;;;;5022679;28;20037;-78
2024/01/01 01:25:31;;;;;;;10.68;5.70;;;;;;;;;;5021777;28;20089;-77
2024/01/01 01:27:56;;;;;;;11.95;6.03;;;;;;;;;;5024973;28;20045;-77
2024/01/01 01:30:21;;;;;;;14.32;6.18;;;;;;;;;;5024620;28;20033;-78
2024/01/01 01:32:46;;;;;;;10.95;5.78;;;;;;;;;;5019698;28;20021;-78
2024/01/01 01:35:12;;;;;;;13.50;6.03;;;;;;;;;;5022630;28;20022;-78
2024/01/01 01:37:37;;;;;;;13.75;6.20;;;;;;;;;;5020287;28;20049;-78
2024/01/01 01:40:03;;;;;;;15.27;6.22;;;;;;;;;;5022353;28;20033;-77
2024/01/01 01:42:28;;;;;;;12.88;6.60;;;;;;;;;;5018043;28;20037;-78
2024/01/01 01:44:53;;;;;;;12.48;6.50;;;;;;;;;;5025558;28;20025;-78
2024/01/01 01:47:19;;;;;;;12.65;6.65;;;;;;;;;;5012269;28;20457;-77
2024/01/01 01:49:44;;;;;;;15.95;7.78;;;;;;;;;;5024023;28;20036;-77
2024/01/01 01:52:10;;;;;;;13.63;6.85;;;;;;;;;;5027338;28;20025;-77
2024/01/01 01:54:36;;;;;;;12.15;6.57;;;;;;;;;;5022424;28;20029;-78
2024/01/01 01:57:01;;;;;;;13.55;7.03;;;;;;;;;;5022803;28;20034;-78
2024/01/01 01:59:26;;;;;;;14.00;6.85;;;;;;;;;;5027272;28;20041;-77
2024/01/01 02:01:52;;;;;;;17.08;7.82;;;;;;;;;;5025112;28;20053;-78
2024/01/01 02:04:17;;;;;;;13.55;7.22;;;;;;;;;;5028546;28;20566;-78
2024/01/01 02:06:42;;;;;;;13.45;6.97;;;;;;;;;;5029751;28;20045;-77
2024/01/01 02:09:08;;;;;;;14.52;6.82;;;;;;;;;;5020934;28;20025;-77
2024/01/01 02:11:33;;;;;;;17.00;7.88;;;;;;;;;;5022405;28;20025;-77
2024/01/01 02:14:12;;;;;;;12.82;6.35;;;;;;;;;;5023358;28;20485;-77
2024/01/01 02:16:38;;;;;;;13.40;7.53;;;;;;;;;;5028970;28;20489;-77
2024/01/01 02:19:06;;;;;;;13.40;6.55;;;;;;;;;;5021814;28;20045;-77
2024/01/01 02:21:31;;;;;;;14.15;7.47;;;;;;;;;;5023602;28;20056;-78
2024/01/01 02:23:57;;;;;;;14.95;7.68;;;;;;;;;;5018163;28;20034;-76
2024/01/01 02:26:22;;;;;;;15.52;7.95;;;;;;;;;;5024256;28;20069;-77
2024/01/01 02:28:47;;;;;;;18.10;9.48;;;;;;;;;;5025686;28;20026;-77
2024/01/01 02:31:12;;;;;;;14.57;6.45;;;;;;;;;;5027164;28;20029;-78
2024/01/01 02:33:38;;;;;;;13.20;8.10;;;;;;;;;;5020388;28;20061;-78
2024/01/01 02:36:03;;;;;;;17.52;7.90;;;;;;;;;;5032552;28;20060;-82
2024/01/01 02:38:28;;;;;;;13.90;7.28;;;;;;;;;;5024956;28;20022;-79
2024/01/01 02:40:53;;;;;;;15.75;6.90;;;;;;;;;;5024816;28;20501;-80
2024/01/01 02:43:18;;;;;;;13.90;7.40;;;;;;;;;;5034279;28;20025;-80
2024/01/01 02:45:44;;;;;;;15.27;7.60;;;;;;;;;;5028592;28;20787;-80
2024/01/01 02:48:09;;;;;;;13.98;6.18;;;;;;;;;;5023686;28;20028;-80
2024/01/01 02:50:34;;;;;;;14.70;7.10;;;;;;;;;;5028115;28;20041;-80
2024/01/01 02:52:59;;;;;;;13.73;7.32;;;;;;;;;;5024040;28;20557;-79
2024/01/01 02:55:25;;;;;;;15.20;7.45;;;;;;;;;;5030973;28;20440;-80
2024/01/01 02:57:50;;;;;;;12.80;6.88;;;;;;;;;;5033568;28;20071;-80
2024/01/01 03:00:15;;;;;;;13.93;7.10;;;;;;;;;;5027411;28;20033;-80
2024/01/01 03:02:41;;;;;;;13.93;7.07;;;;;;;;;;5025182;28;20077;-80
2024/01/01 03:05:06;;;;;;;16.65;6.88;;;;;;;;;;5018436;28;20042;-80
2024/01/01 03:07:32;;;;;;;11.48;5.57;;;;;;;;;;5025998;28;20470;-80
2024/01/01 03:09:57;;;;;;;13.90;6.57;;;;;;;;;;5032378;28;20025;-82
2024/01/01 03:12:22;;;;;;;10.02;5.38;;;;;;;;;;5025071;28;20043;-80
2024/01/01 03:14:48;;;;;;;13.05;5.82;;;;;;;;;;5020777;28;20034;-80
2024/01/01 03:17:13;;;;;;;12.57;5.80;;;;;;;;;;5023338;28;20037;-81
2024/01/01 03:19:39;;;;;;;14.32;6.70;;;;;;;;;;5030072;28;20037;-80
2024/01/01 03:22:04;;;;;;;12.02;5.78;;;;;;;;;;5024113;28;20033;-79
2024/01/01 03:24:29;;;;;;;11.30;5.60;;;;;;;;;;5032705;28;20029;-80
2024/01/01 03:26:54;;;;;;;12.52;5.28;;;;;;;;;;5030862;28;20120;-80
2024/01/01 03:29:19;;;;;;;11.93;5.55;;;;;;;;;;5026525;28;20397;-81
2024/01/01 03:31:45;;;;;;;9.63;5.28;;;;;;;;;;5024266;28;20083;-80
2024/01/01 03:34:10;;;;;;;10.38;5.05;;;;;;;;;;5025691;28;20022;-80
2024/01/01 03:36:35;;;;;;;10.25;4.80;;;;;;;;;;5025026;28;20042;-80
2024/01/01 03:39:00;;;;;;;10.75;4.50;;;;;;;;;;5025834;28;20026;-80
2024/01/01 03:41:26;;;;;;;8.57;4.82;;;;;;;;;;5026670;28;20034;-82
2024/01/01 03:43:51;;;;;;;9.60;4.47;;;;;;;;;;5030032;28;20060;-81
2024/01/01 03:46:16;;;;;;;10.00;4.78;;;;;;;;;;5030429;28;20026;-79
2024/01/01 03:48:42;;;;;;;11.82;4.85;;;;;;;;;;5040378;28;20025;-81
2024/01/01 03:51:07;;;;;;;9.75;4.47;;;;;;;;;;5024700;28;20721;-80
2024/01/01 03:53:32;;;;;;;9.57;4.28;;;;;;;;;;5016421;28;20037;-81
2024/01/01 03:55:57;;;;;;;8.85;4.28;;;;;;;;;;5028728;28;20036;-79
2024/01/01 03:58:22;;;;;;;9.07;4.13;;;;;;;;;;5026924;28;20454;-80
2024/01/01 04:00:48;;;;;;;8.05;3.85;;;;;;;;;;5018678;28;20040;-80
2024/01/01 04:03:13;;;;;;;8.55;4.60;;;;;;;;;;5018235;28;20026;-80
2024/01/01 04:05:38;;;;;;;8.88;4.00;;;;;;;;;;5025093;28;20034;-82
2024/01/01 04:08:03;;;;;;;9.75;4.53;;;;;;;;;;5025647;28;20080;-81
2024/01/01 04:10:29;;;;;;;11.63;3.75;;;;;;;;;;5009968;28;20508;-81
2024/01/01 04:12:54;;;;;;;9.10;3.70;;;;;;;;;;5005005;28;20022;-80
2024/01/01 04:15:19;;;;;;;7.82;3.65;;;;;;;;;;5020755;28;20029;-81
2024/01/01 04:17:44;;;;;;;10.15;4.40;;;;;;;;;;5028779;28;20041;-82
2024/01/01 04:20:10;;;;;;;8.90;4.28;;;;;;;;;;5029515;28;20033;-81
2024/01/01 04:22:40;;;;;;;7.40;3.85;;;;;;;;;;5025771;28;20041;-78
2024/01/01 04:25:06;;;;;;;10.93;3.47;;;;;;;;;;5022724;28;20513;-78
2024/01/01 04:27:31;;;;;;;8.68;3.78;;;;;;;;;;5023789;28;20037;-76
2024/01/01 04:29:56;;;;;;;9.30;3.28;;;;;;;;;;5036444;28;20095;-75
2024/01/01 04:32:21;;;;;;;6.78;2.65;;;;;;;;;;5022320;28;20387;-76
2024/01/01 04:34:47;;;;;;;7.28;4.00;;;;;;;;;;5021738;28;20036;-76
2024/01/01 04:37:12;;;;;;;8.23;3.20;;;;;;;;;;5022627;28;20090;-77
2024/01/01 04:39:37;;;;;;;6.72;2.92;;;;;;;;;;5021687;28;20080;-77
2024/01/01 04:42:03;;;;;;;7.20;3.20;;;;;;;;;;5026314;28;20065;-77
2024/01/01 04:44:29;;;;;;;13.48;3.88;;;;;;;;;;5020180;28;20655;-78
2024/01/01 04:46:54;;;;;;;7.60;3.30;;;;;;;;;;5025607;28;20038;-78
2024/01/01 04:49:19;;;;;;;6.45;3.33;;;;;;;;;;5023451;28;20033;-77
2024/01/01 04:51:44;;;;;;;7.03;2.95;;;;;;;;;;5018032;28;20061;-77
2024/01/01 04:54:09;;;;;;;8.07;3.35;;;;;;;;;;5023354;28;20056;-76
2024/01/01 04:56:34;;;;;;;6.10;3.03;;;;;;;;;;5019163;28;20037;-78
2024/01/01 04:59:00;;;;;;;7.88;2.92;;;;;;;;;;5026512;28;20026;-78
2024/01/01 05:01:27;;;;;;;6.72;2.88;;;;;;;;;;5023099;28;20033;-78
2024/01/01 05:03:52;;;;;;;6.65;3.00;;;;;;;;;;5028738;28;20029;-77
2024/01/01 05:06:17;;;;;;;6.47;2.88;;;;;;;;;;5027443;28;20560;-76
2024/01/01 05:08:42;;;;;;;7.70;2.80;;;;;;;;;;5024887;28;20070;-77
2024/01/01 05:11:08;;;;;;;7.05;2.90;;;;;;;;;;5023861;28;20101;-77
2024/01/01 05:13:33;;;;;;;9.63;3.17;;;;;;;;;;5026114;28;20033;-75
2024/01/01 05:15:58;;;;;;;9.73;2.83;;;;;;;;;;5027528;28;20040;-77
2024/01/01 05:18:23;;;;;;;8.30;3.05;;;;;;;;;;5030179;28;20508;-77
2024/01/01 05:20:48;;;;;;;5.18;2.33;;;;;;;;;;5026786;28;20045;-77
2024/01/01 05:23:14;;;;;;;7.10;3.08;;;;;;;;;;5026212;28;20453;-77
2024/01/01 05:25:39;;;;;;;7.93;3.42;;;;;;;;;;5021286;28;20033;-76
2024/01/01 05:28:07;;;;;;;8.00;2.85;;;;;;;;;;5029906;28;20448;-77
2024/01/01 05:30:33;;;;;;;8.80;2.50;;;;;;;;;;5029933;28;20421;-78
2024/01/01 05:32:58;;;;;;;7.20;2.47;;;;;;;;;;5025144;28;20037;-77
2024/01/01 05:35:23;;;;;;;10.10;3.05;;;;;;;;;;5029158;28;20021;-77
2024/01/01 05:37:48;;;;;;;6.88;2.70;;;;;;;;;;5024200;28;20112;-77
2024/01/01 05:40:14;;;;;;;7.43;2.67;;;;;;;;;;5029222;28;20079;-78
2024/01/01 05:42:39;;;;;;;6.47;2.90;;;;;;;;;;5031310;28;20045;-78
2024/01/01 05:45:05;;;;;;;7.07;2.60;;;;;;;;;;5026903;28;20034;-77
2024/01/01 05:47:30;;;;;;;7.57;2.83;;;;;;;;;;5027622;28;20038;-77
2024/01/01 05:49:55;;;;;;;6.45;2.90;;;;;;;;;;5022246;28;20486;-77
2024/01/01 05:52:21;;;;;;;6.82;2.25;;;;;;;;;;5017364;28;20103;-78
2024/01/01 05:54:47;;;;;;;9.07;2.88;;;;;;;;;;5016379;28;20416;-78
2024/01/01 05:57:13;;;;;;;6.93;2.53;;;;;;;;;;5022586;28;20037;-77
2024/01/01 05:59:38;;;;;;;8.55;3.05;;;;;;;;;;5029897;28;20456;-77
2024/01/01 06:02:03;;;;;;;7.18;2.60;;;;;;;;;;5020571;28;20060;-78
2024/01/01 06:04:28;;;;;;;7.30;3.00;;;;;;;;;;5028083;28;20087;-78
2024/01/01 06:06:53;;;;;;;8.15;2.40;;;;;;;;;;5023806;28;20034;-78
2024/01/01 06:09:18;;;;;;;7.65;2.42;;;;;;;;;;5029882;28;20082;-77
2024/01/01 06:11:44;;;;;;;8.63;3.22;;;;;;;;;;5028124;28;20493;-76
2024/01/01 06:14:09;;;;;;;7.68;2.67;;;;;;;;;;5026623;28;20030;-77
2024/01/01 06:16:34;;;;;;;7.88;3.05;;;;;;;;;;5022947;28;20038;-77
2024/01/01 06:18:59;;;;;;;6.18;2.13;;;;;;;;;;5022122;28;20034;-78
2024/01/01 06:21:24;;;;;;;5.20;2.20;;;;;;;;;;5022003;28;20423;-78
2024/01/01 06:23:50;;;;;;;7.65;2.42;;;;;;;;;;5025724;28;20088;-78
2024/01/01 06:26:15;;;;;;;8.77;2.42;;;;;;;;;;5023827;28;20116;-78
2024/01/01 06:28:40;;;;;;;5.57;2.22;;;;;;;;;;5027311;28;20037;-77
2024/01/01 06:31:05;;;;;;;7.22;2.58;;;;;;;;;;5025708;28;20035;-78
2024/01/01 06:33:31;;;;;;;6.03;2.13;;;;;;;;;;5020875;28;20069;-77
2024/01/01 06:35:56;;;;;;;7.20;2.65;;;;;;;;;;5015229;28;20122;-75
2024/01/01 06:38:21;;;;;;;5.97;2.47;;;;;;;;;;5027420;28;20057;-77
2024/01/01 06:40:46;;;;;;;7.60;2.55;;;;;;;;;;5021095;28;20034;-81
2024/01/01 06:43:12;;;;;;;6.05;2.75;;;;;;;;;;5021564;28;20021;-78
2024/01/01 06:45:37;;;;;;;6.75;2.40;;;;;;;;;;5019585;28;20513;-79
2024/01/01 06:48:02;;;;;;;6.75;2.85;;;;;;;;;;5015394;28;20034;-82
2024/01/01 06:50:27;;;;;;;7.70;3.58;;;;;;;;;;5017991;28;20029;-79
2024/01/01 06:52:53;;;;;;;6.38;2.25;;;;;;;;;;5024156;28;20030;-79
2024/01/01 06:55:18;;;;;;;9.18;3.33;;;;;;;;;;5027042;28;20071;-80
2024/01/01 06:57:44;;;;;;;9.18;3.30;;;;;;;;;;5028530;28;20029;-79
2024/01/01 07:00:09;;;;;;;7.65;2.60;;;;;;;;;;5027622;28;20026;-79
2024/01/01 07:02:35;;;;;;;6.40;3.00;;;;;;;;;;5027353;28;20533;-81
2024/01/01 07:05:00;;;;;;;8.00;3.00;;;;;;;;;;5025724;28;20038;-78
2024/01/01 07:07:25;;;;;;;5.78;3.25;;;;;;;;;;5028770;28;20029;-78
2024/01/01 07:09:50;;;;;;;6.85;3.22;;;;;;;;;;5028695;28;20453;-82
2024/01/01 07:12:18;;;;;;;7.20;3.20;;;;;;;;;;5030486;28;20120;-78
2024/01/01 07:14:43;;;;;;;9.05;3.25;;;;;;;;;;5022007;28;20513;-79
2024/01/01 07:17:08;;;;;;;8.38;3.65;;;;;;;;;;5028801;28;20029;-79
2024/01/01 07:19:33;;;;;;;6.80;2.75;;;;;;;;;;5027741;28;20033;-79
2024/01/01 07:21:58;;;;;;;9.02;3.28;;;;;;;;;;5030603;28;20029;-79
2024/01/01 07:24:24;;;;;;;9.38;3.42;;;;;;;;;;5031834;28;20025;-78
2024/01/01 07:26:49;;;;;;;9.05;3.58;;;;;;;;;;5029305;28;20037;-81
2024/01/01 07:29:14;;;;;;;8.50;3.78;;;;;;;;;;5028882;28;20122;-79
2024/01/01 07:31:39;;;;;;;7.68;3.50;;;;;;;;;;5025663;28;20033;-80
2024/01/01 07:34:05;;;;;;;8.48;3.75;;;;;;;;;;5030146;28;20064;-78
2024/01/01 07:36:30;;;;;;;8.65;3.67;;;;;;;;;;5030502;28;20057;-79
2024/01/01 07:38:55;;;;;;;7.95;3.50;;;;;;;;;;5025396;28;20033;-79
2024/01/01 07:41:21;;;;;;;8.48;3.78;;;;;;;;;;5031380;28;20026;-79
2024/01/01 07:43:47;;;;;;;7.00;3.60;;;;;;;;;;5026782;28;20127;-78
2024/01/01 07:46:12;;;;;;;8.15;3.63;;;;;;;;;;5029702;28;21216;-80
2024/01/01 07:48:37;;;;;;;8.52;3.20;;;;;;;;;;5031578;28;20171;-80
2024/01/01 07:51:02;;;;;;;10.15;3.95;;;;;;;;;;5027650;28;20034;-79
2024/01/01 07:53:28;;;;;;;8.52;3.72;;;;;;;;;;5031772;28;20026;-79
2024/01/01 07:55:53;;;;;;;6.95;3.35;;;;;;;;;;5024968;28;20045;-83
2024/01/01 07:58:18;;;;;;;8.25;3.25;;;;;;;;;;5031298;28;20036;-79
2024/01/01 08:00:43;;;;;;;7.63;3.47;;;;;;;;;;5030025;28;20440;-79
2024/01/01 08:03:08;;;;;;;9.70;4.53;;;;;;;;;;5029321;28;20036;-78
2024/01/01 08:05:34;;;;;;;8.52;3.55;;;;;;;;;;5029157;28;20493;-82
2024/01/01 08:07:59;;;;;;;7.75;3.40;;;;;;;;;;5023741;28;20121;-80
2024/01/01 08:10:25;;;;;;;7.50;3.85;;;;;;;;;;5027756;28;20120;-78
2024/01/01 08:12:50;;;;;;;7.75;3.60;;;;;;;;;;5022376;28;20026;-80
2024/01/01 08:15:15;;;;;;;8.55;3.80;;;;;;;;;;5031021;28;20474;-78
2024/01/01 08:17:40;;;;;;;8.65;4.07;;;;;;;;;;5029710;28;20033;-79
2024/01/01 08:20:06;;;;;;;8.40;3.75;;;;;;;;;;5030705;28;20646;-78
2024/01/01 08:22:31;;;;;;;9.75;4.68;;;;;;;;;;5029130;28;20067;-78
2024/01/01 08:24:56;;;;;;;9.00;4.13;;;;;;;;;;5023176;28;20049;-79
2024/01/01 08:27:21;;;;;;;8.20;4.75;;;;;;;;;;5023753;28;20029;-79
2024/01/01 08:29:46;;;;;;;8.50;4.22;;;;;;;;;;5033040;28;20036;-80
2024/01/01 08:32:11;;;;;;;9.88;4.50;;;;;;;;;;5029031;28;20029;-79
2024/01/01 08:34:37;;;;;;;10.02;4.97;;;;;;;;;;5028945;28;20034;-82
2024/01/01 08:37:02;;;;;;;9.35;4.55;;;;;;;;;;5029770;28;20041;-82
2024/01/01 08:39:27;;;;;;;10.38;4.32;;;;;;;;;;5066925;22;20131;-78
2024/01/01 08:41:53;;;;;;;9.45;4.63;;;;;;;;;;5049830;28;20065;-78
2024/01/01 08:44:18;;;;;;;12.60;5.30;;;;;;;;;;5049092;28;20033;-79
2024/01/01 08:46:43;;;;;;;11.95;5.45;;;;;;;;;;5040683;28;20069;-78
2024/01/01 08:49:08;;;;;;;8.40;4.82;;;;;;;;;;5048036;28;20503;-77
2024/01/01 08:51:35;;;;;;;10.07;5.60;;;;;;;;;;5059565;28;20087;-77
2024/01/01 08:54:01;;;;;;;12.40;5.45;;;;;;;;;;5053967;28;20028;-78
2024/01/01 08:56:26;;;;;;;8.90;4.38;;;;;;;;;;5050227;28;20413;-77
2024/01/01 08:58:51;;;;;;;9.98;4.50;;;;;;;;;;5056867;28;20514;-78
2024/01/01 09:01:17;;;;;;;8.98;4.50;;;;;;;;;;5054256;28;20048;-78
2024/01/01 09:03:43;;;;;;;9.73;4.15;;;;;;;;;;5053711;28;20033;-77
2024/01/01 09:06:08;;;;;;;10.55;4.20;;;;;;;;;;5051215;28;20039;-78
2024/01/01 09:08:33;;;;;;;9.27;4.35;;;;;;;;;;5049715;28;20040;-77
2024/01/01 09:10:58;;;;;;;10.70;4.68;;;;;;;;;;5053165;28;20033;-77
2024/01/01 09:13:23;;;;;;;9.32;4.30;;;;;;;;;;5057074;28;20036;-77
2024/01/01 09:15:49;;;;;;;10.30;4.47;;;;;;;;;;5056125;28;20040;-77
2024/01/01 09:18:14;;;;;;;12.40;4.85;;;;;;;;;;5056382;28;20040;-77
2024/01/01 09:20:41;;;;;;;11.15;4.60;;;;;;;;;;5053437;28;20033;-77
2024/01/01 09:23:06;;;;;;;9.43;4.30;;;;;;;;;;5058239;28;20690;-77
2024/01/01 09:25:33;;;;;;;10.75;4.28;;;;;;;;;;5058089;28;20037;-77
2024/01/01 09:27:58;;;;;;;8.63;4.03;;;;;;;;;;5053630;28;20036;-77
2024/01/01 09:30:23;;;;;;;6.85;4.10;;;;;;;;;;5056606;28;20029;-77
2024/01/01 09:32:49;;;;;;;9.88;4.28;;;;;;;;;;5053653;28;20060;-77
2024/01/01 09:35:14;;;;;;;9.45;4.30;;;;;;;;;;5058985;28;20036;-76
2024/01/01 09:37:40;;;;;;;8.75;3.90;;;;;;;;;;5050154;28;20517;-76
2024/01/01 09:40:05;;;;;;;10.60;4.20;;;;;;;;;;5050571;28;20035;-77
2024/01/01 09:42:30;;;;;;;9.27;3.88;;;;;;;;;;5056978;28;20476;-77
2024/01/01 09:44:56;;;;;;;8.20;3.80;;;;;;;;;;5054100;28;20517;-76
2024/01/01 09:47:21;;;;;;;8.20;3.75;;;;;;;;;;5050223;28;20115;-77
2024/01/01 09:49:46;;;;;;;8.10;3.60;;;;;;;;;;5050577;28;20033;-77
2024/01/01 09:52:13;;;;;;;8.55;3.50;;;;;;;;;;5054980;28;20091;-77
2024/01/01 09:54:39;;;;;;;8.75;3.97;;;;;;;;;;5050473;28;20037;-77
2024/01/01 09:57:04;;;;;;;8.75;4.38;;;;;;;;;;5057834;28;20106;-77
2024/01/01 09:59:36;;;;;;;9.65;3.15;;;;;;;;;;5056466;28;20029;-77
2024/01/01 10:02:05;;;;;;;9.98;3.08;;;;;;;;;;5054783;28;20032;-78
2024/01/01 10:04:30;;;;;;;7.93;3.53;;;;;;;;;;5051333;28;20060;-78
2024/01/01 10:06:58;;;;;;;8.98;3.30;;;;;;;;;;5055914;28;20065;-77
2024/01/01 10:09:24;;;;;;;8.10;3.22;;;;;;;;;;5049875;28;20104;-77
2024/01/01 10:11:49;;;;;;;6.95;3.22;;;;;;;;;;5055203;28;20052;-77
2024/01/01 10:14:14;;;;;;;8.00;3.28;;;;;;;;;;5050853;28;20104;-77
2024/01/01 10:16:40;;;;;;;6.68;2.80;;;;;;;;;;5053427;28;20489;-76
2024/01/01 10:19:06;;;;;;;6.70;3.00;;;;;;;;;;5049869;28;20029;-78
2024/01/01 10:21:32;;;;;;;7.40;3.30;;;;;;;;;;5050680;28;20029;-77
2024/01/01 10:23:59;;;;;;;9.32;3.78;;;;;;;;;;5052757;28;20120;-77
2024/01/01 10:26:24;;;;;;;10.32;3.40;;;;;;;;;;5052830;28;20021;-77
2024/01/01 10:28:49;;;;;;;7.90;3.15;;;;;;;;;;5054001;28;20033;-75
2024/01/01 10:31:18;;;;;;;9.18;3.53;;;;;;;;;;5052368;28;20033;-76
2024/01/01 10:33:47;;;;;;;8.20;3.70;;;;;;;;;;5039197;28;20043;-76
2024/01/01 10:36:16;;;;;;;6.80;3.25;;;;;;;;;;5050292;28;20546;-77
2024/01/01 10:38:43;;;;;;;7.25;3.03;;;;;;;;;;5051000;28;20053;-76
2024/01/01 10:41:09;;;;;;;10.00;3.88;;;;;;;;;;5049986;28;20029;-76
2024/01/01 10:43:35;;;;;;;9.73;3.30;;;;;;;;;;5054995;28;20071;-77
2024/01/01 10:46:03;;;;;;;9.18;3.17;;;;;;;;;;5054156;28;20079;-76
2024/01/01 10:48:32;;;;;;;7.18;2.60;;;;;;;;;;5059821;28;20402;-79
2024/01/01 10:51:03;;;;;;;6.53;2.80;;;;;;;;;;5057410;28;20425;-78
2024/01/01 10:53:36;;;;;;;10.38;2.60;;;;;;;;;;5060926;28;20099;-77
2024/01/01 10:56:10;;;;;;;11.48;3.05;;;;;;;;;;5051060;28;20079;-78
2024/01/01 10:58:35;;;;;;;7.75;2.13;;;;;;;;;;5060401;28;20042;-77
2024/01/01 11:01:17;;;;;;;7.90;1.98;;;;;;;;;;5056302;28;20036;-77
2024/01/01 11:03:46;;;;;;;5.80;2.22;;;;;;;;;;5050809;28;20283;-77
2024/01/01 11:06:29;;;;;;;4.75;2.05;;;;;;;;;;5056522;28;20048;-78
2024/01/01 11:08:55;;;;;;;8.60;2.30;;;;;;;;;;5054605;28;20033;-77
2024/01/01 11:11:32;;;;;;;7.18;1.52;;;;;;;;;;5052336;28;20067;-78
2024/01/01 11:13:58;;;;;;;4.53;1.65;;;;;;;;;;5053012;28;20472;-77
2024/01/01 11:16:23;;;;;;;6.45;2.00;;;;;;;;;;5052999;28;20060;-77
2024/01/01 11:18:49;;;;;;;7.55;2.40;;;;;;;;;;5066880;28;20036;-77
2024/01/01 11:21:27;;;;;;;5.50;2.00;;;;;;;;;;5052894;28;20083;-77
2024/01/01 11:23:53;;;;;;;9.35;2.30;;;;;;;;;;5052950;28;20033;-77
2024/01/01 11:26:34;;;;;;;9.77;1.80;;;;;;;;;;5052844;28;20021;-77
2024/01/01 11:29:01;;;;;;;3.90;1.63;;;;;;;;;;5063914;28;20064;-78
2024/01/01 11:31:27;;;;;;;6.00;1.95;;;;;;;;;;5054503;28;20020;-77
2024/01/01 11:33:58;;;;;;;6.75;1.65;;;;;;;;;;5060282;28;20680;-77
2024/01/01 11:36:24;;;;;;;5.13;1.50;;;;;;;;;;5056885;28;20527;-77
2024/01/01 11:38:51;;;;;;;7.38;2.13;;;;;;;;;;5059906;28;20279;-77
2024/01/01 11:41:21;;;;;;;5.40;1.98;;;;;;;;;;5052546;28;20060;-77
2024/01/01 11:43:46;;;;;;;9.15;2.40;;;;;;;;;;5052721;28;20043;-77
2024/01/01 11:46:20;;;;;;;5.75;1.40;;;;;;;;;;5054112;28;20037;-77
2024/01/01 11:48:53;;;;;;;5.15;1.80;;;;;;;;;;5055340;28;20033;-77
2024/01/01 11:51:18;;;;;;;4.82;1.80;;;;;;;;;;5052492;28;20087;-77
2024/01/01 11:53:43;;;;;;;5.97;1.60;;;;;;;;;;5052311;28;20472;-77
2024/01/01 11:56:09;;;;;;;8.32;2.33;;;;;;;;;;5052665;28;20112;-77
2024/01/01 11:58:34;;;;;;;7.63;2.35;;;;;;;;;;5058484;28;20044;-77
2024/01/01 12:00:59;;;;;;;7.13;2.35;;;;;;;;;;5052325;28;20037;-77
2024/01/01 12:03:25;;;;;;;5.32;1.75;;;;;;;;;;5053822;28;20103;-77
2024/01/01 12:06:00;;;;;;;6.40;2.13;;;;;;;;;;5052362;28;20071;-78
2024/01/01 12:08:25;;;;;;;8.35;2.03;;;;;;;;;;5059280;28;20445;-77
2024/01/01 12:10:57;;;;;;;6.70;2.00;;;;;;;;;;5056716;28;20060;-77
2024/01/01 12:13:22;;;;;;;5.88;1.83;;;;;;;;;;5051655;28;20025;-77
2024/01/01 12:15:51;;;;;;;7.65;2.22;;;;;;;;;;5056986;28;20079;-77
2024/01/01 12:18:16;;;;;;;9.60;2.35;;;;;;;;;;5051528;28;20439;-77
2024/01/01 12:20:41;;;;;;;4.63;1.60;;;;;;;;;;5057467;28;20025;-77
2024/01/01 12:23:13;;;;;;;6.18;2.13;;;;;;;;;;5051576;28;20063;-78
2024/01/01 12:25:38;;;;;;;5.15;1.67;;;;;;;;;;5052037;28;20060;-77
2024/01/01 12:28:04;;;;;;;7.05;2.22;;;;;;;;;;5057595;28;20067;-77
2024/01/01 12:30:30;;;;;;;5.88;1.58;;;;;;;;;;5062203;28;20021;-77
2024/01/01 12:32:55;;;;;;;8.13;1.85;;;;;;;;;;5051732;28;20025;-78
2024/01/01 12:35:20;;;;;;;5.53;1.50;;;;;;;;;;5051671;28;20394;-77
2024/01/01 12:37:49;;;;;;;9.48;2.47;;;;;;;;;;5052906;28;20119;-77
2024/01/01 12:40:14;;;;;;;6.07;2.20;;;;;;;;;;5057786;28;20033;-77
2024/01/01 12:42:40;;;;;;;5.28;1.58;;;;;;;;;;5051285;28;20040;-78
2024/01/01 12:45:05;;;;;;;7.07;1.92;;;;;;;;;;5053070;28;20029;-77
2024/01/01 12:47:30;;;;;;;6.75;1.80;;;;;;;;;;5051086;28;20041;-77
2024/01/01 12:49:55;;;;;;;8.70;1.83;;;;;;;;;;5054288;28;20027;-77
2024/01/01 12:52:21;;;;;;;5.40;1.40;;;;;;;;;;5051635;28;20029;-77
2024/01/01 12:54:46;;;;;;;5.05;1.60;;;;;;;;;;5051275;28;20278;-77
2024/01/01 12:57:11;;;;;;;6.40;1.67;;;;;;;;;;5052612;28;20036;-77
2024/01/01 12:59:38;;;;;;;5.57;1.65;;;;;;;;;;5061242;28;20776;-77
2024/01/01 13:02:03;;;;;;;4.75;1.70;;;;;;;;;;5057810;28;20029;-77
2024/01/01 13:04:28;;;;;;;8.07;2.35;;;;;;;;;;5051066;28;20035;-77
2024/01/01 13:06:54;;;;;;;6.15;1.00;;;;;;;;;;5050000;28;20040;-77
2024/01/01 13:09:19;;;;;;;5.20;1.75;;;;;;;;;;5054014;28;20108;-77
2024/01/01 13:11:44;;;;;;;6.45;1.27;;;;;;;;;;5059751;28;20473;-77
2024/01/01 13:14:10;;;;;;;5.35;1.88;;;;;;;;;;5050650;28;20492;-77
2024/01/01 13:16:35;;;;;;;5.63;1.55;;;;;;;;;;5051944;28;20068;-77
2024/01/01 13:19:00;;;;;;;4.50;1.30;;;;;;;;;;5050619;28;20473;-77
2024/01/01 13:21:26;;;;;;;9.65;2.13;;;;;;;;;;5053469;28;20025;-77
2024/01/01 13:23:51;;;;;;;5.30;1.35;;;;;;;;;;5055411;28;20481;-77
2024/01/01 13:26:17;;;;;;;3.78;1.65;;;;;;;;;;5051515;28;20382;-77
2024/01/01 13:28:42;;;;;;;6.57;1.52;;;;;;;;;;5065401;28;20550;-77
2024/01/01 13:31:08;;;;;;;4.57;1.20;;;;;;;;;;5051713;28;20029;-77
2024/01/01 13:33:34;;;;;;;4.93;1.60;;;;;;;;;;5057566;28;20029;-78
2024/01/01 13:35:59;;;;;;;6.82;1.70;;;;;;;;;;5050737;28;20056;-77
2024/01/01 13:38:24;;;;;;;7.32;1.38;;;;;;;;;;5056214;28;20033;-77
2024/01/01 13:40:49;;;;;;;3.83;1.10;;;;;;;;;;5053810;28;20111;-77
2024/01/01 13:43:15;;;;;;;5.72;1.42;;;;;;;;;;5054472;28;20029;-78
2024/01/01 13:45:40;;;;;;;8.70;2.72;;;;;;;;;;5050692;28;20037;-77
2024/01/01 13:48:12;;;;;;;8.65;2.53;;;;;;;;;;5050231;28;20072;-77
2024/01/01 13:50:39;;;;;;;5.63;1.45;;;;;;;;;;5050710;28;20040;-77
2024/01/01 13:53:04;;;;;;;8.07;1.90;;;;;;;;;;5053112;28;20089;-77
2024/01/01 13:55:30;;;;;;;6.03;1.45;;;;;;;;;;5050657;28;20548;-78
2024/01/01 13:57:56;;;;;;;7.53;1.45;;;;;;;;;;5054458;28;20036;-77
2024/01/01 14:00:24;;;;;;;5.03;1.20;;;;;;;;;;5050929;28;20029;-77
2024/01/01 14:02:49;;;;;;;4.60;1.13;;;;;;;;;;5054766;28;20504;-77
2024/01/01 14:05:14;;;;;;;5.20;0.75;;;;;;;;;;5056300;28;20087;-77
2024/01/01 14:07:44;;;;;;;6.18;0.98;;;;;;;;;;5049999;28;20060;-78
2024/01/01 14:10:10;;;;;;;5.22;0.90;;;;;;;;;;5049083;28;20029;-77
2024/01/01 14:12:35;;;;;;;5.65;1.00;;;;;;;;;;5049985;28;20528;-78
2024/01/01 14:15:01;;;;;;;5.70;0.87;;;;;;;;;;5053326;28;20025;-77
2024/01/01 14:17:26;;;;;;;7.80;1.20;;;;;;;;;;5053102;28;20267;-78
2024/01/01 14:19:52;;;;;;;3.85;0.98;;;;;;;;;;5049106;28;20106;-77
2024/01/01 14:22:17;;;;;;;5.45;1.80;;;;;;;;;;5052060;28;20104;-77
2024/01/01 14:24:43;;;;;;;4.95;1.15;;;;;;;;;;5054960;28;20033;-77
2024/01/01 14:27:09;;;;;;;5.65;0.95;;;;;;;;;;5054020;28;20033;-77
2024/01/01 14:29:35;;;;;;;3.63;0.80;;;;;;;;;;5063059;28;20040;-77